Time;durP1;ratioP1;P1;durP2;ratioP2;P2;SDS_P1;SDS_P2;PMS_P1;PMS_P2;Temp;Humidity;BMP_temperature;BMP_pressure;BME280_temperature;BME280_humidity;BME280_pressure;Samples;Min_cycle;Max_cycle;Signal;HPM_P1;HPM_P2
2022/12/03 00:02:39;;;;;;;;;;;;;;;1.60;100.00;101257.03;5589651;31;34760;-70
2022/12/03 00:05:49;;;;;;;;;;;;;;;1.58;100.00;101254.53;5575658;31;34185;-70
2022/12/03 00:08:56;;;;;;;;;;;;;;;1.55;100.00;101256.50;5574745;31;34434;-70
2022/12/03 00:12:05;;;;;;;;;;;;;;;1.53;100.00;101269.66;5576773;31;34907;-71
2022/12/03 00:15:15;;;;;;;;;;;;;;;1.65;100.00;101274.16;5589615;31;34450;-71
2022/12/03 00:18:24;;;;;;;;;;;;;;;1.63;100.00;101269.97;5589436;31;34326;-70
2022/12/03 00:21:29;;;;;;;;;;;;;;;1.72;100.00;101274.66;5589608;31;34872;-70
2022/12/03 00:24:37;;;;;;;;;;;;;;;1.76;100.00;101276.16;5576160;31;34384;-71
2022/12/03 00:27:43;;;;;;;;;;;;;;;1.78;100.00;101276.06;5575860;31;34380;-70
2022/12/03 00:30:52;;;;;;;;;;;;;;;1.64;100.00;101276.88;5589252;31;34222;-71
2022/12/03 00:33:57;;;;;;;;;;;;;;;1.56;100.00;101284.31;5589451;31;34292;-71
2022/12/03 00:37:05;;;;;;;;;;;;;;;1.52;100.00;101283.66;5589220;31;34566;-71
2022/12/03 00:40:12;;;;;;;;;;;;;;;1.50;100.00;101282.88;5589024;31;35058;-70
2022/12/03 00:43:20;;;;;;;;;;;;;;;1.56;100.00;101279.94;5589094;31;34900;-71
2022/12/03 00:46:26;;;;;;;;;;;;;;;1.74;100.00;101286.69;5575727;31;34269;-70
2022/12/03 00:49:34;;;;;;;;;;;;;;;1.70;100.00;101292.19;5588970;31;34251;-71
2022/12/03 00:52:42;;;;;;;;;;;;;;;1.59;100.00;101292.00;5588840;31;34324;-71
2022/12/03 00:55:50;;;;;;;;;;;;;;;1.61;100.00;101287.50;5588761;31;34232;-71
2022/12/03 00:58:58;;;;;;;;;;;;;;;1.57;100.00;101286.84;5562426;31;33024;-71
2022/12/03 01:02:09;;;;;;;;;;;;;;;1.53;100.00;101284.50;5574767;31;33565;-71
2022/12/03 01:05:16;;;;;;;;;;;;;;;1.56;100.00;101281.69;5574989;31;34280;-70
2022/12/03 01:08:23;;;;;;;;;;;;;;;1.48;100.00;101278.69;5574596;31;34514;-70
2022/12/03 01:11:40;;;;;;;;;;;;;;;1.43;100.00;101278.94;5588367;31;35058;-71
2022/12/03 01:14:46;;;;;;;;;;;;;;;1.44;100.00;101279.78;5575020;31;34296;-71
2022/12/03 01:17:53;;;;;;;;;;;;;;;1.41;100.00;101272.09;5588527;31;34182;-70
2022/12/03 01:21:03;;;;;;;;;;;;;;;1.45;100.00;101278.88;5591166;31;34700;-71
2022/12/03 01:24:09;;;;;;;;;;;;;;;1.48;100.00;101282.16;5578063;31;34186;-71
2022/12/03 01:27:16;;;;;;;;;;;;;;;1.55;100.00;101283.47;5591128;31;34368;-71
2022/12/03 01:30:20;;;;;;;;;;;;;;;1.61;100.00;101283.12;5577447;31;34315;-71
2022/12/03 01:33:26;;;;;;;;;;;;;;;1.66;100.00;101277.63;5591366;31;34302;-71
2022/12/03 01:36:36;;;;;;;;;;;;;;;1.57;100.00;101284.22;5591061;31;34327;-71
2022/12/03 01:39:42;;;;;;;;;;;;;;;1.49;100.00;101277.75;5591028;31;34172;-71
2022/12/03 01:42:50;;;;;;;;;;;;;;;1.48;100.00;101289.16;5577554;31;34331;-71
2022/12/03 01:45:58;;;;;;;;;;;;;;;1.48;100.00;101289.16;5590942;31;34905;-71
2022/12/03 01:49:04;;;;;;;;;;;;;;;1.48;100.00;101289.16;5577034;31;35237;-71
2022/12/03 01:52:19;;;;;;;;;;;;;;;1.46;100.00;101297.06;5590945;31;34786;-71
2022/12/03 01:55:26;;;;;;;;;;;;;;;1.54;100.00;101294.03;5590896;31;34897;-71
2022/12/03 01:58:33;;;;;;;;;;;;;;;1.58;100.00;101301.63;5590840;31;34279;-71
2022/12/03 02:01:39;;;;;;;;;;;;;;;1.56;100.00;101293.00;5590914;31;34617;-71
2022/12/03 02:04:47;;;;;;;;;;;;;;;1.56;100.00;101298.22;5590799;31;34223;-71
2022/12/03 02:07:54;;;;;;;;;;;;;;;1.62;100.00;101287.44;5590580;31;34161;-71
2022/12/03 02:11:02;;;;;;;;;;;;;;;1.72;100.00;101287.72;5570186;32;34204;-71
2022/12/03 02:14:12;;;;;;;;;;;;;;;1.85;100.00;101290.47;5570084;32;34966;-70
2022/12/03 02:17:20;;;;;;;;;;;;;;;1.72;100.00;101291.19;5571136;32;34847;-71
2022/12/03 02:20:27;;;;;;;;;;;;;;;1.67;100.00;101280.16;5570355;32;34215;-70
2022/12/03 02:24:05;;;;;;;;;;;;;;;1.63;100.00;101272.56;5571050;32;34881;-71
2022/12/03 02:27:12;;;;;;;;;;;;;;;1.63;100.00;101277.81;5538744;31;34562;-69
2022/12/03 02:30:20;;;;;;;;;;;;;;;1.73;100.00;101281.56;5569329;32;34236;-70
2022/12/03 02:33:29;;;;;;;;;;;;;;;1.83;100.00;101280.13;5570796;32;34132;-70
2022/12/03 02:36:35;;;;;;;;;;;;;;;1.81;100.00;101279.34;5569629;32;34500;-70
2022/12/03 02:39:45;;;;;;;;;;;;;;;1.81;100.00;101275.88;5570814;32;34487;-71
2022/12/03 02:42:54;;;;;;;;;;;;;;;1.84;100.00;101273.09;5570770;32;34819;-70
2022/12/03 02:46:03;;;;;;;;;;;;;;;1.77;100.00;101287.47;5570773;32;34364;-70
2022/12/03 02:49:11;;;;;;;;;;;;;;;1.73;100.00;101282.41;5570706;32;34780;-70
2022/12/03 02:52:21;;;;;;;;;;;;;;;1.86;100.00;101277.31;5569951;32;32895;-70
2022/12/03 02:55:28;;;;;;;;;;;;;;;1.76;100.00;101286.62;5570054;32;34409;-70
2022/12/03 02:58:45;;;;;;;;;;;;;;;1.70;100.00;101282.59;5570770;32;34266;-70
2022/12/03 03:01:52;;;;;;;;;;;;;;;1.66;100.00;101275.84;5570679;32;34122;-71
2022/12/03 03:05:01;;;;;;;;;;;;;;;1.65;100.00;101279.38;5570543;32;34370;-70
2022/12/03 03:08:07;;;;;;;;;;;;;;;1.74;100.00;101286.69;5570507;31;34831;-71
2022/12/03 03:11:13;;;;;;;;;;;;;;;1.69;100.00;101288.75;5590212;31;34229;-70
2022/12/03 03:14:21;;;;;;;;;;;;;;;1.71;100.00;101283.44;5577258;31;34274;-70
2022/12/03 03:17:28;;;;;;;;;;;;;;;1.67;100.00;101279.31;5590019;31;34395;-70
2022/12/03 03:20:35;;;;;;;;;;;;;;;1.67;100.00;101274.94;5590115;31;34200;-70
2022/12/03 03:23:42;;;;;;;;;;;;;;;1.69;100.00;101274.84;5590131;31;34223;-70
2022/12/03 03:26:52;;;;;;;;;;;;;;;1.71;100.00;101275.59;5590113;31;34216;-71
2022/12/03 03:30:03;;;;;;;;;;;;;;;1.74;100.00;101280.66;5576970;31;34320;-70
2022/12/03 03:33:10;;;;;;;;;;;;;;;1.72;100.00;101283.34;5576678;31;34859;-70
2022/12/03 03:36:22;;;;;;;;;;;;;;;1.76;100.00;101286.62;5590445;31;34807;-70
2022/12/03 03:39:29;;;;;;;;;;;;;;;1.95;100.00;101279.38;5590063;31;34813;-70
2022/12/03 03:42:38;;;;;;;;;;;;;;;1.91;100.00;101277.87;5576890;31;34288;-70
2022/12/03 03:45:44;;;;;;;;;;;;;;;1.85;100.00;101277.37;5590243;31;34821;-70
2022/12/03 03:48:51;;;;;;;;;;;;;;;1.86;100.00;101277.31;5589899;31;34320;-70
2022/12/03 03:51:55;;;;;;;;;;;;;;;1.83;100.00;101281.88;5589904;31;34203;-70
2022/12/03 03:55:05;;;;;;;;;;;;;;;1.82;100.00;101278.41;5589824;31;34983;-70
2022/12/03 03:58:12;;;;;;;;;;;;;;;1.80;100.00;101282.03;5576111;31;34975;-70
2022/12/03 04:01:18;;;;;;;;;;;;;;;1.85;100.00;101285.22;5589672;31;34875;-71
2022/12/03 04:04:25;;;;;;;;;;;;;;;1.96;100.00;101275.81;5589974;31;34284;-70
2022/12/03 04:07:30;;;;;;;;;;;;;;;1.87;100.00;101278.16;5558795;31;968918;-71
2022/12/03 04:14:04;;;;;;;;;;;;;;;1.88;100.00;101280.69;5589555;31;34214;-70
2022/12/03 04:17:11;;;;;;;;;;;;;;;1.92;100.00;101290.03;5589607;31;34187;-70
2022/12/03 04:20:21;;;;;;;;;;;;;;;1.96;100.00;101281.06;5575531;31;33095;-70
2022/12/03 04:23:27;;;;;;;;;;;;;;;1.95;100.00;101281.16;5575498;31;32791;-70
2022/12/03 04:30:04;;;;;;;;;;;;;;;2.01;100.00;101294.72;5589454;31;34220;-71
2022/12/03 04:36:36;;;;;;;;;;;;;;;2.16;100.00;101283.34;5589206;31;34250;-70
2022/12/03 04:39:42;;;;;;;;;;;;;;;2.07;100.00;101283.91;5589107;31;34873;-70
2022/12/03 04:42:48;;;;;;;;;;;;;;;2.11;100.00;101287.16;5589048;31;34878;-70
2022/12/03 04:45:54;;;;;;;;;;;;;;;1.98;100.00;101288.84;5589092;31;34384;-70
2022/12/03 04:49:02;;;;;;;;;;;;;;;2.03;100.00;101281.56;5588872;31;35559;-70
2022/12/03 04:52:09;;;;;;;;;;;;;;;2.01;100.00;101284.25;5588698;31;34973;-71
2022/12/03 04:55:15;;;;;;;;;;;;;;;2.24;100.00;101289.88;5590788;31;34851;-69
2022/12/03 04:58:22;;;;;;;;;;;;;;;2.05;100.00;101293.59;5577941;31;34325;-71
2022/12/03 05:01:29;;;;;;;;;;;;;;;1.98;100.00;101294.91;5591408;31;34222;-70
2022/12/03 05:04:38;;;;;;;;;;;;;;;1.91;100.00;101297.97;5578278;31;34299;-70
2022/12/03 05:07:48;;;;;;;;;;;;;;;1.95;100.00;101300.31;5591213;31;34900;-70
2022/12/03 05:10:53;;;;;;;;;;;;;;;1.83;100.00;101298.41;5570428;32;34067;-70
2022/12/03 05:14:03;;;;;;;;;;;;;;;1.86;100.00;101302.63;5570542;32;34801;-70
2022/12/03 05:17:08;;;;;;;;;;;;;;;1.92;100.00;101299.66;5571587;32;34811;-70
2022/12/03 05:23:41;;;;;;;;;;;;;;;1.82;100.00;101308.97;5571631;32;34967;-70
2022/12/03 05:26:47;;;;;;;;;;;;;;;1.82;100.00;101314.19;5570807;32;34591;-70
2022/12/03 05:29:52;;;;;;;;;;;;;;;1.84;100.00;101305.31;5571302;32;34446;-70
2022/12/03 05:33:01;;;;;;;;;;;;;;;1.86;100.00;101311.31;5570953;32;34162;-70
2022/12/03 05:36:06;;;;;;;;;;;;;;;1.98;100.00;101313.22;5571507;32;34866;-70
2022/12/03 05:39:13;;;;;;;;;;;;;;;1.85;100.00;101308.78;5571359;32;34281;-70
2022/12/03 05:45:45;;;;;;;;;;;;;;;1.77;100.00;101301.37;5571307;32;34205;-70
2022/12/03 05:48:51;;;;;;;;;;;;;;;1.83;100.00;101308.03;5570807;32;34513;-71
2022/12/03 05:51:59;;;;;;;;;;;;;;;1.80;100.00;101303.81;5571209;32;34334;-70
2022/12/03 05:55:06;;;;;;;;;;;;;;;1.83;100.00;101308.03;5571126;32;34403;-70
2022/12/03 05:58:15;;;;;;;;;;;;;;;1.98;100.00;101309.78;5571310;32;34876;-70
2022/12/03 06:01:21;;;;;;;;;;;;;;;2.04;100.00;101320.69;5571162;32;34930;-70
2022/12/03 06:04:29;;;;;;;;;;;;;;;1.91;100.00;101313.66;5570917;32;34228;-70
2022/12/03 06:07:36;;;;;;;;;;;;;;;1.78;100.00;101326.62;5570691;32;34608;-71
2022/12/03 06:10:44;;;;;;;;;;;;;;;1.92;100.00;101329.28;5570165;32;34282;-71
2022/12/03 06:13:51;;;;;;;;;;;;;;;1.96;100.00;101332.56;5571013;32;34880;-70
2022/12/03 06:16:58;;;;;;;;;;;;;;;2.04;100.00;101330.31;5569842;32;34681;-71
2022/12/03 06:20:05;;;;;;;;;;;;;;;2.17;100.00;101334.75;5570958;32;34781;-70
2022/12/03 06:23:12;;;;;;;;;;;;;;;2.15;100.00;101326.16;5570953;32;34452;-70
2022/12/03 06:26:21;;;;;;;;;;;;;;;2.11;100.00;101327.28;5570851;32;35087;-71
2022/12/03 06:29:29;;;;;;;;;;;;;;;2.12;100.00;101322.88;5570975;32;34903;-70
2022/12/03 06:32:37;;;;;;;;;;;;;;;1.92;100.00;101326.66;5569819;32;34918;-70
2022/12/03 06:35:45;;;;;;;;;;;;;;;1.92;100.00;101324.03;5570773;32;34141;-71
2022/12/03 06:38:53;;;;;;;;;;;;;;;1.87;100.00;101320.00;5570715;32;34307;-70
2022/12/03 06:42:02;;;;;;;;;;;;;;;2.06;100.00;101325.84;5570757;32;34903;-69
2022/12/03 06:45:07;;;;;;;;;;;;;;;2.09;100.00;101316.03;5570672;32;34633;-70
2022/12/03 06:48:13;;;;;;;;;;;;;;;1.96;100.00;101335.16;5569917;32;34813;-69
2022/12/03 06:51:20;;;;;;;;;;;;;;;2.03;100.00;101339.13;5570615;32;34425;-70
2022/12/03 06:54:26;;;;;;;;;;;;;;;2.12;100.00;101336.81;5570641;32;34178;-70
2022/12/03 06:57:32;;;;;;;;;;;;;;;2.27;100.00;101335.06;5570869;32;34500;-71
2022/12/03 07:00:39;;;;;;;;;;;;;;;2.40;100.00;101327.28;5570600;32;33992;-71
2022/12/03 07:03:46;;;;;;;;;;;;;;;2.44;100.00;101331.41;5569865;32;34236;-71
2022/12/03 07:06:53;;;;;;;;;;;;;;;2.30;100.00;101336.62;5570318;32;33550;-71
2022/12/03 07:10:02;;;;;;;;;;;;;;;2.31;100.00;101333.94;5582695;31;34210;-71
2022/12/03 07:13:11;;;;;;;;;;;;;;;2.33;100.00;101331.19;5590582;31;34251;-71
2022/12/03 07:16:18;;;;;;;;;;;;;;;2.36;100.00;101331.87;5575426;31;34618;-70
2022/12/03 07:19:27;;;;;;;;;;;;;;;2.47;100.00;101337.28;5590084;31;34926;-70
2022/12/03 07:22:38;;;;;;;;;;;;;;;2.34;100.00;101328.50;5575445;31;34623;-70
2022/12/03 07:25:49;;;;;;;;;;;;;;;2.37;100.00;101319.62;5590015;31;34298;-70
2022/12/03 07:28:54;;;;;;;;;;;;;;;2.41;100.00;101332.44;5576477;31;35330;-70
2022/12/03 07:32:01;;;;;;;;;;;;;;;2.43;100.00;101334.97;5589868;31;34427;-71
2022/12/03 07:35:07;;;;;;;;;;;;;;;2.52;100.00;101337.00;5563592;31;34705;-70
2022/12/03 07:38:14;;;;;;;;;;;;;;;2.36;100.00;101337.12;5589916;31;34873;-70
2022/12/03 07:41:22;;;;;;;;;;;;;;;2.54;100.00;101343.03;5589823;31;34959;-70
2022/12/03 07:44:33;;;;;;;;;;;;;;;2.50;100.00;101337.12;5589854;31;34271;-70
2022/12/03 07:47:38;;;;;;;;;;;;;;;2.50;100.00;101337.12;5563238;31;34183;-70
2022/12/03 07:50:43;;;;;;;;;;;;;;;2.42;100.00;101339.34;5576069;31;34272;-71
2022/12/03 07:53:51;;;;;;;;;;;;;;;2.48;100.00;101344.22;5589724;31;34911;-70
2022/12/03 07:56:56;;;;;;;;;;;;;;;2.52;100.00;101329.16;5563022;31;34132;-70
2022/12/03 08:00:05;;;;;;;;;;;;;;;2.47;100.00;101329.44;5575216;31;33067;-71
2022/12/03 08:03:13;;;;;;;;;;;;;;;2.61;100.00;101333.88;5575511;31;33989;-70
2022/12/03 08:06:22;;;;;;;;;;;;;;;3.00;100.00;101335.81;5576368;31;34889;-70
2022/12/03 08:09:31;;;;;;;;;;;;;;;2.89;100.00;101338.25;5589369;31;34346;-70
2022/12/03 08:12:41;;;;;;;;;;;;;;;3.02;100.00;101340.00;5589369;31;34377;-70
2022/12/03 08:15:49;;;;;;;;;;;;;;;2.88;100.00;101341.78;5589417;31;34180;-70
2022/12/03 08:18:56;;;;;;;;;;;;;;;2.83;100.00;101342.06;5589405;31;34920;-70
2022/12/03 08:22:12;;;;;;;;;;;;;;;2.77;100.00;101337.22;5589375;31;34318;-70
2022/12/03 08:25:29;;;;;;;;;;;;;;;2.87;100.00;101340.94;5563447;31;34280;-71
2022/12/03 08:28:35;;;;;;;;;;;;;;;2.99;100.00;101341.97;5574379;31;32881;-70
2022/12/03 08:31:41;;;;;;;;;;;;;;;2.97;100.00;101341.22;5562445;31;34469;-71
2022/12/03 08:34:51;;;;;;;;;;;;;;;3.24;100.00;101349.97;5588871;31;34400;-71
2022/12/03 08:38:01;;;;;;;;;;;;;;;3.32;100.00;101345.09;5589061;31;34997;-71
2022/12/03 08:41:14;;;;;;;;;;;;;;;3.26;100.00;101347.25;5562476;31;35156;-71
2022/12/03 08:44:31;;;;;;;;;;;;;;;3.15;100.00;101352.34;5562150;31;33918;-70
2022/12/03 08:47:39;;;;;;;;;;;;;;;3.18;100.00;101349.53;5562472;31;34042;-70
2022/12/03 08:50:44;;;;;;;;;;;;;;;3.19;100.00;101349.44;5588784;31;34409;-70
2022/12/03 08:53:59;;;;;;;;;;;;;;;3.29;100.00;101355.75;5588734;31;34115;-71
2022/12/03 08:57:21;;;;;;;;;;;;;;;3.25;100.00;101351.66;5588641;31;34829;-73
2022/12/03 09:00:27;;;;;;;;;;;;;;;3.22;100.00;101361.50;5588503;31;34269;-70
2022/12/03 09:03:33;;;;;;;;;;;;;;;3.45;100.00;101364.34;5588500;31;35081;-70
2022/12/03 09:06:41;;;;;;;;;;;;;;;3.90;100.00;101362.28;5561760;31;35241;-70
2022/12/03 09:09:49;;;;;;;;;;;;;;;3.75;100.00;101365.91;5588292;31;34654;-71
2022/12/03 09:12:56;;;;;;;;;;;;;;;4.04;100.00;101367.47;5588748;31;34178;-71
2022/12/03 09:16:01;;;;;;;;;;;;;;;3.97;100.00;101354.88;5575049;31;34927;-71
2022/12/03 09:19:06;;;;;;;;;;;;;;;3.91;100.00;101356.09;5588332;31;34266;-71
2022/12/03 09:22:11;;;;;;;;;;;;;;;4.14;100.00;101359.81;5574723;31;34261;-70
2022/12/03 09:25:16;;;;;;;;;;;;;;;4.15;100.00;101354.47;5588580;31;34712;-70
2022/12/03 09:28:22;;;;;;;;;;;;;;;4.03;100.00;101350.03;5573551;31;33142;-71
2022/12/03 09:31:29;;;;;;;;;;;;;;;4.41;100.00;101343.97;5574518;31;34342;-71
2022/12/03 09:34:36;;;;;;;;;;;;;;;5.02;100.00;101337.94;5587940;31;35121;-71
2022/12/03 09:37:42;;;;;;;;;;;;;;;5.50;100.00;101337.03;5573962;31;34057;-71
2022/12/03 09:40:46;;;;;;;;;;;;;;;5.63;100.00;101337.81;5590302;31;34689;-71
2022/12/03 09:43:52;;;;;;;;;;;;;;;5.08;100.00;101325.16;5590760;31;34253;-71
2022/12/03 09:47:16;;;;;;;;;;;;;;;5.21;100.00;101338.28;5576316;31;34919;-71
2022/12/03 09:50:25;;;;;;;;;;;;;;;5.12;100.00;101337.19;5577088;31;33880;-70
2022/12/03 09:53:33;;;;;;;;;;;;;;;5.14;100.00;101329.16;5577220;31;34982;-70
2022/12/03 09:56:45;;;;;;;;;;;;;;;4.97;100.00;101322.47;5576809;31;34391;-71
2022/12/03 09:59:56;;;;;;;;;;;;;;;5.59;100.00;101320.56;5576421;31;34376;-71
2022/12/03 10:03:03;;;;;;;;;;;;;;;5.96;100.00;101315.22;5577080;31;34405;-71
2022/12/03 10:06:09;;;;;;;;;;;;;;;6.13;100.00;101320.06;5590245;31;34420;-70
2022/12/03 10:09:21;;;;;;;;;;;;;;;5.73;100.00;101318.69;5576903;31;34511;-71
2022/12/03 10:12:29;;;;;;;;;;;;;;;5.91;100.00;101326.09;5590186;31;34263;-71
2022/12/03 10:15:35;;;;;;;;;;;;;;;6.35;100.00;101316.62;5590132;31;34199;-71
2022/12/03 10:18:51;;;;;;;;;;;;;;;6.45;100.00;101305.25;5576883;31;34641;-71
2022/12/03 10:21:57;;;;;;;;;;;;;;;6.05;100.00;101299.56;5590204;31;34244;-72
2022/12/03 10:25:09;;;;;;;;;;;;;;;6.20;100.00;101301.97;5590250;31;34327;-71
2022/12/03 10:28:25;;;;;;;;;;;;;;;5.81;100.00;101292.66;5590159;31;34390;-71
2022/12/03 10:31:34;;;;;;;;;;;;;;;5.95;100.00;101295.13;5590172;31;34215;-72
2022/12/03 10:34:42;;;;;;;;;;;;;;;6.44;100.00;101284.28;5575792;31;35272;-71
2022/12/03 10:38:00;;;;;;;;;;;;;;;6.57;100.00;101281.53;5589991;31;34558;-71
2022/12/03 10:41:19;;;;;;;;;;;;;;;6.82;100.00;101286.56;5590111;31;34902;-72
2022/12/03 10:44:26;;;;;;;;;;;;;;;7.27;100.00;101276.75;5590051;31;34200;-72
2022/12/03 10:47:32;;;;;;;;;;;;;;;7.62;100.00;101273.84;5590074;31;34938;-71
2022/12/03 10:50:50;;;;;;;;;;;;;;;7.18;100.00;101278.31;5563239;31;33082;-71
2022/12/03 10:53:55;;;;;;;;;;;;;;;7.28;100.00;101281.06;5576069;31;34499;-71
2022/12/03 10:57:03;;;;;;;;;;;;;;;7.96;100.00;101272.72;5576909;31;34839;-71
2022/12/03 11:00:14;;;;;;;;;;;;;;;8.58;100.00;101258.59;5590156;31;34303;-71
2022/12/03 11:03:24;;;;;;;;;;;;;;;8.14;100.00;101263.22;5590012;31;34475;-71
2022/12/03 11:06:34;;;;;;;;;;;;;;;8.84;96.53;101265.09;5589943;31;34332;-70
2022/12/03 11:09:42;;;;;;;;;;;;;;;8.63;93.71;101265.16;5590056;31;35045;-70
2022/12/03 11:13:07;;;;;;;;;;;;;;;7.67;100.00;101261.94;5576009;31;34171;-71
2022/12/03 11:16:14;;;;;;;;;;;;;;;7.52;100.00;101255.28;5589544;31;34112;-69
2022/12/03 11:19:35;;;;;;;;;;;;;;;6.93;100.00;101245.16;5576530;31;34240;-71
2022/12/03 11:22:44;;;;;;;;;;;;;;;7.38;100.00;101237.97;5589899;31;34113;-71
2022/12/03 11:25:51;;;;;;;;;;;;;;;8.09;99.54;101230.22;5589801;31;34288;-71
2022/12/03 11:28:58;;;;;;;;;;;;;;;8.26;99.24;101222.53;5590247;31;34308;-71
2022/12/03 11:32:04;;;;;;;;;;;;;;;8.43;96.62;101226.37;5589695;31;34351;-70
2022/12/03 11:35:21;;;;;;;;;;;;;;;8.14;97.53;101230.66;5589877;31;34201;-70
2022/12/03 11:38:44;;;;;;;;;;;;;;;7.83;100.00;101227.19;5589912;31;34343;-70
2022/12/03 11:42:27;;;;;;;;;;;;;;;7.55;100.00;101215.41;5589736;31;35030;-70
2022/12/03 11:45:38;;;;;;;;;;;;;;;7.35;100.00;101214.47;5575720;31;33086;-71
2022/12/03 11:48:47;;;;;;;;;;;;;;;7.72;100.00;101219.31;5589938;31;34203;-71
2022/12/03 11:51:54;;;;;;;;;;;;;;;7.68;100.00;101209.97;5575719;31;34074;-71
2022/12/03 11:55:04;;;;;;;;;;;;;;;7.68;100.00;101216.09;5589346;31;34824;-70
2022/12/03 11:58:27;;;;;;;;;;;;;;;7.94;100.00;101216.50;5589432;31;34280;-70
2022/12/03 12:01:33;;;;;;;;;;;;;;;7.77;100.00;101204.75;5589690;31;34427;-70
2022/12/03 12:04:45;;;;;;;;;;;;;;;7.59;100.00;101202.81;5588272;31;34234;-70
2022/12/03 12:07:50;;;;;;;;;;;;;;;7.22;100.00;101208.50;5589069;31;34311;-71
2022/12/03 12:10:56;;;;;;;;;;;;;;;7.34;100.00;101198.75;5589444;31;34998;-71
2022/12/03 12:14:08;;;;;;;;;;;;;;;7.68;100.00;101194.97;5589331;31;34465;-71
2022/12/03 12:17:32;;;;;;;;;;;;;;;8.08;100.00;101199.50;5589446;31;34383;-71
2022/12/03 12:20:38;;;;;;;;;;;;;;;8.27;98.57;101192.50;5576016;31;34982;-71
2022/12/03 12:23:44;;;;;;;;;;;;;;;8.29;97.61;101182.66;5589078;31;34148;-72
2022/12/03 12:26:52;;;;;;;;;;;;;;;8.18;98.03;101182.69;5589305;31;34828;-72
2022/12/03 12:30:03;;;;;;;;;;;;;;;8.20;97.43;101169.34;5589516;31;34259;-72
2022/12/03 12:33:17;;;;;;;;;;;;;;;7.79;100.00;101176.37;5575193;31;34268;-71
2022/12/03 12:36:23;;;;;;;;;;;;;;;7.99;98.51;101184.44;5589177;31;34762;-71
2022/12/03 12:39:29;;;;;;;;;;;;;;;7.63;100.00;101183.09;5588819;31;34678;-71
2022/12/03 12:42:36;;;;;;;;;;;;;;;7.86;99.09;101180.19;5574495;31;34469;-70
2022/12/03 12:45:42;;;;;;;;;;;;;;;7.30;100.00;101186.78;5562323;31;35740;-70
2022/12/03 12:48:52;;;;;;;;;;;;;;;7.01;100.00;101181.25;5574839;31;35808;-70
2022/12/03 12:52:04;;;;;;;;;;;;;;;6.97;100.00;101179.84;5588784;31;34696;-70
2022/12/03 12:55:13;;;;;;;;;;;;;;;6.96;100.00;101172.87;5562557;31;35495;-70
2022/12/03 12:58:21;;;;;;;;;;;;;;;6.91;100.00;101172.41;5575000;31;33204;-69
2022/12/03 13:01:29;;;;;;;;;;;;;;;7.03;100.00;101162.63;5575477;31;34860;-71
2022/12/03 13:04:38;;;;;;;;;;;;;;;6.84;100.00;101163.31;5575494;31;34756;-70
2022/12/03 13:07:44;;;;;;;;;;;;;;;6.74;100.00;101170.28;5588496;31;34873;-70
2022/12/03 13:10:51;;;;;;;;;;;;;;;6.53;100.00;101170.22;5574216;31;34364;-70
2022/12/03 13:13:59;;;;;;;;;;;;;;;6.70;100.00;101163.59;5588537;31;34713;-70
2022/12/03 13:17:19;;;;;;;;;;;;;;;6.31;100.00;101163.19;5577055;31;32829;-69
2022/12/03 13:20:26;;;;;;;;;;;;;;;6.26;100.00;101172.41;5591037;31;34574;-69
2022/12/03 13:23:33;;;;;;;;;;;;;;;6.21;100.00;101171.91;5577370;31;34221;-70
2022/12/03 13:26:40;;;;;;;;;;;;;;;6.18;100.00;101182.72;5576691;31;34299;-70
2022/12/03 13:29:45;;;;;;;;;;;;;;;6.35;100.00;101183.06;5590891;31;34441;-72
2022/12/03 13:32:57;;;;;;;;;;;;;;;6.14;100.00;101173.38;5591013;31;34337;-70
2022/12/03 13:36:10;;;;;;;;;;;;;;;6.02;100.00;101168.09;5591092;31;34489;-70
2022/12/03 13:39:23;;;;;;;;;;;;;;;6.22;100.00;101176.25;5590951;31;34494;-69
2022/12/03 13:42:40;;;;;;;;;;;;;;;6.13;100.00;101183.06;5590808;31;34982;-69
2022/12/03 13:45:48;;;;;;;;;;;;;;;6.15;100.00;101183.78;5590864;31;34879;-69
2022/12/03 13:48:57;;;;;;;;;;;;;;;6.23;100.00;101173.50;5576915;31;34994;-69
2022/12/03 13:52:14;;;;;;;;;;;;;;;6.25;100.00;101184.72;5590682;31;34368;-69
2022/12/03 13:55:28;;;;;;;;;;;;;;;6.18;100.00;101187.97;5576893;31;35539;-69
2022/12/03 13:58:35;;;;;;;;;;;;;;;6.33;100.00;101182.34;5590567;31;34254;-69
2022/12/03 14:01:44;;;;;;;;;;;;;;;6.05;100.00;101173.13;5577014;31;34763;-70
2022/12/03 14:04:54;;;;;;;;;;;;;;;5.88;100.00;101186.75;5576587;31;34133;-70
2022/12/03 14:08:09;;;;;;;;;;;;;;;5.90;100.00;101184.88;5590436;31;34114;-71
2022/12/03 14:14:38;;;;;;;;;;;;;;;5.84;100.00;101189.72;5576623;31;34644;-69
2022/12/03 14:17:43;;;;;;;;;;;;;;;5.81;100.00;101185.50;5577056;31;34252;-69
2022/12/03 14:20:49;;;;;;;;;;;;;;;5.86;100.00;101186.00;5590272;31;35020;-69
2022/12/03 14:24:00;;;;;;;;;;;;;;;5.74;100.00;101192.22;5577311;31;34957;-70
2022/12/03 14:27:07;;;;;;;;;;;;;;;5.74;100.00;101194.84;5589722;31;34795;-70
2022/12/03 14:30:13;;;;;;;;;;;;;;;5.71;100.00;101189.84;5590517;31;34176;-70
2022/12/03 14:33:20;;;;;;;;;;;;;;;5.69;100.00;101192.56;5590240;31;34897;-69
2022/12/03 14:36:27;;;;;;;;;;;;;;;5.72;100.00;101188.84;5590110;31;33910;-70
2022/12/03 14:39:33;;;;;;;;;;;;;;;5.63;100.00;101195.66;5576971;31;34772;-70
2022/12/03 14:42:38;;;;;;;;;;;;;;;5.64;100.00;101194.72;5576297;31;35159;-70
2022/12/03 14:45:44;;;;;;;;;;;;;;;5.55;100.00;101189.31;5590264;31;34321;-70
2022/12/03 14:48:51;;;;;;;;;;;;;;;5.50;100.00;101188.81;5576341;31;35034;-70
2022/12/03 14:51:58;;;;;;;;;;;;;;;5.54;100.00;101198.16;5590007;31;34918;-70
2022/12/03 14:55:05;;;;;;;;;;;;;;;5.53;100.00;101196.47;5590131;31;34301;-70
2022/12/03 14:58:13;;;;;;;;;;;;;;;5.40;100.00;101204.44;5590144;31;34212;-70
2022/12/03 15:01:22;;;;;;;;;;;;;;;5.42;100.00;101199.91;5575980;31;34268;-70
2022/12/03 15:04:29;;;;;;;;;;;;;;;5.28;100.00;101199.28;5576224;31;33977;-70
2022/12/03 15:07:37;;;;;;;;;;;;;;;5.20;100.00;101202.47;5590048;31;34828;-70
2022/12/03 15:10:43;;;;;;;;;;;;;;;5.20;100.00;101203.31;5563319;31;34784;-70
2022/12/03 15:13:52;;;;;;;;;;;;;;;5.14;100.00;101202.91;5575924;31;35006;-70
2022/12/03 15:17:00;;;;;;;;;;;;;;;5.12;100.00;101202.19;5590136;31;34944;-70
2022/12/03 15:20:07;;;;;;;;;;;;;;;5.09;100.00;101194.50;5589851;31;34180;-70
2022/12/03 15:23:13;;;;;;;;;;;;;;;5.16;100.00;101201.00;5575854;31;33107;-70
2022/12/03 15:26:21;;;;;;;;;;;;;;;5.09;100.00;101191.88;5575986;31;34317;-69
2022/12/03 15:29:29;;;;;;;;;;;;;;;4.96;100.00;101202.47;5590254;31;34899;-70
2022/12/03 15:32:36;;;;;;;;;;;;;;;4.82;100.00;101206.09;5589959;31;34901;-70
2022/12/03 15:35:44;;;;;;;;;;;;;;;4.75;100.00;101202.22;5589930;31;34274;-70
2022/12/03 15:38:51;;;;;;;;;;;;;;;4.68;100.00;101202.78;5589514;31;34851;-70
2022/12/03 15:41:58;;;;;;;;;;;;;;;4.58;100.00;101213.13;5576535;31;34253;-70
2022/12/03 15:45:05;;;;;;;;;;;;;;;4.46;100.00;101208.72;5576399;31;34211;-70
2022/12/03 15:48:19;;;;;;;;;;;;;;;4.47;100.00;101204.31;5575877;31;33681;-69
2022/12/03 15:51:27;;;;;;;;;;;;;;;4.48;100.00;101208.62;5576084;31;35024;-69
2022/12/03 15:54:33;;;;;;;;;;;;;;;4.35;100.00;101206.87;5575890;31;34792;-69
2022/12/03 15:57:43;;;;;;;;;;;;;;;4.27;100.00;101206.53;5563694;31;34187;-69
2022/12/03 16:00:49;;;;;;;;;;;;;;;4.23;100.00;101196.37;5576192;31;34889;-69
2022/12/03 16:03:56;;;;;;;;;;;;;;;4.17;100.00;101202.87;5589642;31;34818;-69
2022/12/03 16:07:03;;;;;;;;;;;;;;;4.11;100.00;101202.50;5575291;31;32711;-69
2022/12/03 16:10:11;;;;;;;;;;;;;;;4.03;100.00;101204.78;5589135;31;34213;-70
2022/12/03 16:13:18;;;;;;;;;;;;;;;3.98;100.00;101206.87;5588995;31;34753;-69
2022/12/03 16:16:29;;;;;;;;;;;;;;;3.97;100.00;101205.22;5589144;31;34757;-71
2022/12/03 16:19:35;;;;;;;;;;;;;;;3.94;100.00;101201.84;5589060;31;34796;-70
2022/12/03 16:22:40;;;;;;;;;;;;;;;3.93;100.00;101204.56;5589281;31;34265;-71
2022/12/03 16:25:45;;;;;;;;;;;;;;;3.85;100.00;101212.16;5575448;31;34960;-70
2022/12/03 16:28:51;;;;;;;;;;;;;;;3.79;100.00;101205.53;5575744;31;34208;-70
2022/12/03 16:32:02;;;;;;;;;;;;;;;3.79;100.00;101212.56;5589222;31;34671;-70